Wetterdaten: Woche 01.05.23 - 07.05.23 (KW18)
Datum Zeit Temp. Aussen Temp. o. S. Temp +5cm Feuchte Auss Luftdruck Regen Sonnenschein Regendauer Solar Windben Empfang
01.05.2023 00:00 11,7 C 10,7 C 6,9 C 77 % 1018,5 hPa 0,0 l/m 0,00 h 0,00 h 0 W/m 3,0 km/h (1 Bft) 96,42 %
01.05.2023 01:00 10,8 C 9,7 C 6,2 C 81 % 1018,3 hPa 0,0 l/m 0,00 h 0,00 h 0 W/m 0,3 km/h (0 Bft) 97,40 %
01.05.2023 02:00 10,0 C 8,6 C 5,4 C 83 % 1017,7 hPa 0,0 l/m 0,00 h 0,00 h 0 W/m 0,2 km/h (0 Bft) 97,41 %
01.05.2023 03:00 9,3 C 8,1 C 5,0 C 86 % 1017,0 hPa 0,0 l/m 0,00 h 0,00 h 0 W/m 0,2 km/h (0 Bft) 97,77 %
01.05.2023 04:00 9,1 C 9,1 C 5,8 C 87 % 1016,3 hPa 0,0 l/m 0,00 h 0,00 h 0 W/m 3,0 km/h (1 Bft) 97,91 %
01.05.2023 05:00 9,9 C 9,4 C 6,1 C 82 % 1015,6 hPa 0,0 l/m 0,00 h 0,00 h 0 W/m 4,5 km/h (1 Bft) 96,37 %
01.05.2023 06:00 10,0 C 9,5 C 6,2 C 82 % 1015,3 hPa 0,0 l/m 0,00 h 0,00 h 20 W/m 6,0 km/h (2 Bft) 97,84 %
01.05.2023 07:00 10,8 C 10,9 C 7,1 C 81 % 1015,2 hPa 0,0 l/m 0,00 h 0,00 h 88 W/m 8,8 km/h (2 Bft) 97,49 %
01.05.2023 08:00 12,3 C 12,5 C 8,4 C 77 % 1015,2 hPa 0,0 l/m 0,00 h 0,00 h 139 W/m 8,6 km/h (2 Bft) 96,80 %
01.05.2023 09:00 13,6 C 13,9 C 9,7 C 74 % 1015,2 hPa 0,0 l/m 0,00 h 0,00 h 207 W/m 8,6 km/h (2 Bft) 98,08 %
01.05.2023 10:00 15,1 C 16,7 C 11,6 C 70 % 1015,1 hPa 0,0 l/m 0,60 h 0,00 h 355 W/m 8,6 km/h (2 Bft) 98,08 %
01.05.2023 11:00 17,1 C 19,4 C 14,3 C 65 % 1015,0 hPa 0,0 l/m 0,90 h 0,00 h 514 W/m 9,3 km/h (2 Bft) 97,84 %
01.05.2023 12:00 19,2 C 22,9 C 17,3 C 61 % 1014,8 hPa 0,0 l/m 1,00 h 0,00 h 593 W/m 7,8 km/h (2 Bft) 96,10 %
01.05.2023 13:00 21,3 C 24,5 C 17,4 C 57 % 1014,4 hPa 0,0 l/m 1,00 h 0,00 h 587 W/m 10,2 km/h (2 Bft) 97,45 %
01.05.2023 14:00 20,1 C 19,5 C 15,3 C 57 % 1014,3 hPa 0,0 l/m 0,00 h 0,00 h 245 W/m 9,7 km/h (2 Bft) 99,29 %
01.05.2023 15:00 19,8 C 21,9 C 15,6 C 54 % 1014,2 hPa 0,0 l/m 0,63 h 0,00 h 482 W/m 12,8 km/h (3 Bft) 96,65 %
01.05.2023 16:00 17,3 C 16,4 C 12,6 C 63 % 1014,7 hPa 0,2 l/m 0,00 h 0,33 h 114 W/m 15,5 km/h (3 Bft) 97,38 %
01.05.2023 17:00 15,7 C 15,0 C 10,7 C 75 % 1015,4 hPa 0,6 l/m 0,00 h 0,37 h 66 W/m 6,8 km/h (2 Bft) 98,01 %
01.05.2023 18:00 14,4 C 14,4 C 8,4 C 83 % 1015,6 hPa 0,4 l/m 0,33 h 0,40 h 148 W/m 1,5 km/h (1 Bft) 95,19 %
01.05.2023 19:00 15,0 C 14,9 C 9,0 C 83 % 1016,0 hPa 0,0 l/m 0,20 h 0,00 h 96 W/m 2,9 km/h (1 Bft) 97,79 %
01.05.2023 20:00 14,1 C 13,0 C 9,0 C 85 % 1016,5 hPa 0,0 l/m 0,27 h 0,00 h 28 W/m 5,4 km/h (1 Bft) 97,87 %
01.05.2023 21:00 12,7 C 11,5 C 8,2 C 89 % 1017,1 hPa 0,0 l/m 0,00 h 0,00 h 0 W/m 3,3 km/h (1 Bft) 96,44 %
01.05.2023 22:00 11,9 C 10,7 C 7,4 C 91 % 1017,6 hPa 0,0 l/m 0,00 h 0,00 h 0 W/m 1,6 km/h (1 Bft) 98,18 %
01.05.2023 23:00 11,4 C 10,7 C 7,2 C 92 % 1018,2 hPa 0,0 l/m 0,00 h 0,00 h 0 W/m 6,9 km/h (2 Bft) 98,32 %
02.05.2023 00:00 11,2 C 10,3 C 7,0 C 90 % 1018,8 hPa 0,0 l/m 0,00 h 0,00 h 0 W/m 4,5 km/h (1 Bft) 97,39 %
02.05.2023 01:00 10,5 C 9,2 C 6,0 C 91 % 1019,3 hPa 0,0 l/m 0,00 h 0,00 h 0 W/m 2,5 km/h (1 Bft) 95,95 %
02.05.2023 02:00 9,7 C 8,8 C 5,6 C 92 % 1019,7 hPa 0,0 l/m 0,00 h 0,00 h 0 W/m 7,1 km/h (2 Bft) 96,01 %
02.05.2023 03:00 9,9 C 9,2 C 6,2 C 94 % 1020,0 hPa 0,0 l/m 0,00 h 0,00 h 0 W/m 6,6 km/h (2 Bft) 95,99 %
02.05.2023 04:00 10,3 C 9,8 C 6,7 C 95 % 1020,5 hPa 0,0 l/m 0,00 h 0,00 h 0 W/m 4,7 km/h (1 Bft) 96,71 %
02.05.2023 05:00 10,4 C 10,0 C 6,7 C 95 % 1020,9 hPa 0,0 l/m 0,00 h 0,00 h 0 W/m 5,2 km/h (1 Bft) 98,15 %
02.05.2023 06:00 10,4 C 9,9 C 6,6 C 94 % 1021,4 hPa 0,0 l/m 0,00 h 0,00 h 11 W/m 7,4 km/h (2 Bft) 97,95 %
02.05.2023 07:00 10,3 C 9,4 C 6,4 C 95 % 1022,2 hPa 0,0 l/m 0,00 h 0,10 h 24 W/m 10,2 km/h (2 Bft) 95,38 %
02.05.2023 08:00 10,1 C 10,4 C 6,7 C 95 % 1023,1 hPa 0,0 l/m 0,00 h 0,00 h 102 W/m 16,7 km/h (3 Bft) 98,29 %
02.05.2023 09:00 10,5 C 10,6 C 7,1 C 89 % 1024,0 hPa 0,0 l/m 0,03 h 0,00 h 114 W/m 17,6 km/h (3 Bft) 97,28 %
02.05.2023 10:00 10,5 C 10,9 C 7,1 C 85 % 1024,7 hPa 0,0 l/m 0,00 h 0,00 h 185 W/m 15,2 km/h (3 Bft) 97,65 %
02.05.2023 11:00 10,9 C 11,7 C 7,7 C 80 % 1025,5 hPa 0,0 l/m 0,13 h 0,00 h 262 W/m 14,7 km/h (3 Bft) 97,29 %
02.05.2023 12:00 12,4 C 17,4 C 11,5 C 72 % 1026,0 hPa 0,0 l/m 0,83 h 0,00 h 629 W/m 21,7 km/h (4 Bft) 95,92 %
02.05.2023 13:00 13,7 C 19,2 C 11,6 C 64 % 1026,1 hPa 0,0 l/m 0,90 h 0,00 h 739 W/m 20,3 km/h (4 Bft) 96,49 %
02.05.2023 14:00 13,5 C 16,5 C 10,2 C 61 % 1026,7 hPa 0,0 l/m 0,60 h 0,00 h 468 W/m 16,7 km/h (3 Bft) 99,79 %
02.05.2023 15:00 14,4 C 19,8 C 10,5 C 58 % 1026,9 hPa 0,0 l/m 0,83 h 0,00 h 730 W/m 15,1 km/h (3 Bft) 96,79 %
02.05.2023 16:00 14,9 C 19,2 C 10,9 C 56 % 1026,9 hPa 0,0 l/m 1,00 h 0,00 h 711 W/m 18,8 km/h (3 Bft) 96,96 %
02.05.2023 17:00 15,2 C 18,7 C 11,6 C 55 % 1026,8 hPa 0,0 l/m 0,83 h 0,00 h 505 W/m 13,1 km/h (3 Bft) 99,01 %
02.05.2023 18:00 14,1 C 16,0 C 10,0 C 57 % 1026,9 hPa 0,0 l/m 0,57 h 0,00 h 229 W/m 12,9 km/h (3 Bft) 96,84 %
02.05.2023 19:00 13,0 C 12,6 C 8,6 C 59 % 1027,1 hPa 0,0 l/m 0,13 h 0,00 h 69 W/m 12,4 km/h (3 Bft) 98,12 %
02.05.2023 20:00 11,8 C 11,0 C 7,4 C 62 % 1027,4 hPa 0,0 l/m 0,00 h 0,00 h 19 W/m 10,2 km/h (2 Bft) 97,73 %
02.05.2023 21:00 10,8 C 9,9 C 6,1 C 66 % 1027,9 hPa 0,0 l/m 0,00 h 0,00 h 0 W/m 6,3 km/h (2 Bft) 95,65 %
02.05.2023 22:00 9,8 C 8,3 C 4,9 C 70 % 1028,3 hPa 0,0 l/m 0,00 h 0,00 h 0 W/m 2,6 km/h (1 Bft) 98,56 %
02.05.2023 23:00 8,7 C 7,7 C 4,2 C 73 % 1028,7 hPa 0,0 l/m 0,00 h 0,00 h 0 W/m 4,3 km/h (1 Bft) 97,15 %
03.05.2023 00:00 7,8 C 6,4 C 3,2 C 76 % 1028,9 hPa 0,0 l/m 0,00 h 0,00 h 0 W/m 0,9 km/h (0 Bft) 98,46 %
03.05.2023 01:00 6,7 C 5,1 C 2,3 C 82 % 1028,8 hPa 0,0 l/m 0,00 h 0,00 h 0 W/m 0,0 km/h (0 Bft) 96,21 %
03.05.2023 02:00 5,6 C 4,1 C 1,3 C 85 % 1028,7 hPa 0,0 l/m 0,00 h 0,00 h 0 W/m 0,0 km/h (0 Bft) 95,28 %
03.05.2023 03:00 4,8 C 3,5 C 0,8 C 88 % 1028,7 hPa 0,0 l/m 0,00 h 0,00 h 0 W/m 0,0 km/h (0 Bft) 98,21 %
03.05.2023 04:00 4,2 C 3,3 C 0,6 C 89 % 1029,0 hPa 0,0 l/m 0,00 h 0,00 h 0 W/m 0,1 km/h (0 Bft) 99,15 %
03.05.2023 05:00 3,9 C 3,3 C 0,3 C 91 % 1028,6 hPa 0,0 l/m 0,00 h 0,00 h 0 W/m 2,0 km/h (1 Bft) 97,22 %
03.05.2023 06:00 3,8 C 3,1 C 0,2 C 91 % 1028,6 hPa 0,0 l/m 0,00 h 0,00 h 12 W/m 2,1 km/h (1 Bft) 97,72 %
03.05.2023 07:00 4,5 C 4,4 C 1,0 C 92 % 1029,1 hPa 0,0 l/m 0,00 h 0,00 h 29 W/m 5,0 km/h (1 Bft) 95,65 %
03.05.2023 08:00 6,5 C 8,3 C 3,0 C 90 % 1029,4 hPa 0,0 l/m 0,63 h 0,00 h 241 W/m 7,6 km/h (2 Bft) 98,29 %
03.05.2023 09:00 10,8 C 18,0 C 8,4 C 73 % 1029,2 hPa 0,0 l/m 1,00 h 0,00 h 502 W/m 11,1 km/h (2 Bft) 99,57 %
03.05.2023 10:00 12,6 C 17,8 C 8,7 C 64 % 1028,9 hPa 0,0 l/m 0,93 h 0,00 h 629 W/m 11,4 km/h (2 Bft) 96,37 %
03.05.2023 11:00 13,6 C 18,3 C 10,6 C 60 % 1028,6 hPa 0,0 l/m 1,00 h 0,00 h 787 W/m 11,7 km/h (2 Bft) 99,22 %
03.05.2023 12:00 15,2 C 23,5 C 15,7 C 57 % 1028,2 hPa 0,0 l/m 1,00 h 0,00 h 851 W/m 12,3 km/h (3 Bft) 97,90 %
03.05.2023 13:00 16,3 C 24,9 C 13,2 C 55 % 1027,8 hPa 0,0 l/m 1,00 h 0,00 h 891 W/m 13,9 km/h (3 Bft) 97,81 %
03.05.2023 14:00 17,0 C 24,6 C 12,4 C 52 % 1027,3 hPa 0,0 l/m 1,00 h 0,00 h 840 W/m 14,4 km/h (3 Bft) 96,87 %
03.05.2023 15:00 17,5 C 24,2 C 12,8 C 50 % 1026,5 hPa 0,0 l/m 1,00 h 0,00 h 774 W/m 13,9 km/h (3 Bft) 97,94 %
03.05.2023 16:00 18,2 C 23,9 C 13,8 C 49 % 1025,6 hPa 0,0 l/m 1,00 h 0,00 h 685 W/m 13,7 km/h (3 Bft) 97,65 %
03.05.2023 17:00 18,4 C 23,5 C 15,1 C 49 % 1025,2 hPa 0,0 l/m 1,00 h 0,00 h 530 W/m 13,6 km/h (3 Bft) 98,21 %
03.05.2023 18:00 18,1 C 23,0 C 14,1 C 50 % 1024,8 hPa 0,0 l/m 1,00 h 0,00 h 347 W/m 11,0 km/h (2 Bft) 95,32 %
03.05.2023 19:00 16,1 C 16,0 C 11,5 C 56 % 1024,5 hPa 0,0 l/m 0,17 h 0,00 h 75 W/m 9,8 km/h (2 Bft) 99,65 %
03.05.2023 20:00 14,4 C 13,6 C 9,7 C 62 % 1024,3 hPa 0,0 l/m 0,00 h 0,00 h 15 W/m 5,2 km/h (1 Bft) 97,24 %
03.05.2023 21:00 12,8 C 11,6 C 8,1 C 68 % 1024,4 hPa 0,0 l/m 0,00 h 0,00 h 0 W/m 3,8 km/h (1 Bft) 97,32 %
03.05.2023 22:00 11,8 C 10,8 C 7,3 C 70 % 1024,4 hPa 0,0 l/m 0,00 h 0,00 h 0 W/m 4,3 km/h (1 Bft) 97,34 %
03.05.2023 23:00 11,1 C 10,2 C 6,7 C 71 % 1024,0 hPa 0,0 l/m 0,00 h 0,00 h 0 W/m 6,8 km/h (2 Bft) 98,49 %
04.05.2023 00:00 10,3 C 9,2 C 5,8 C 73 % 1023,6 hPa 0,0 l/m 0,00 h 0,00 h 0 W/m 5,5 km/h (1 Bft) 97,80 %
04.05.2023 01:00 9,1 C 8,0 C 4,6 C 78 % 1023,4 hPa 0,0 l/m 0,00 h 0,00 h 0 W/m 4,2 km/h (1 Bft) 96,95 %
04.05.2023 02:00 8,3 C 7,2 C 4,2 C 81 % 1023,0 hPa 0,0 l/m 0,00 h 0,00 h 0 W/m 4,6 km/h (1 Bft) 98,60 %
04.05.2023 03:00 8,0 C 7,1 C 3,9 C 82 % 1022,5 hPa 0,0 l/m 0,00 h 0,00 h 0 W/m 4,7 km/h (1 Bft) 98,01 %
04.05.2023 04:00 7,5 C 6,4 C 3,3 C 84 % 1022,3 hPa 0,0 l/m 0,00 h 0,00 h 0 W/m 3,5 km/h (1 Bft) 94,11 %
04.05.2023 05:00 7,0 C 6,0 C 2,8 C 86 % 1022,0 hPa 0,0 l/m 0,00 h 0,00 h 0 W/m 3,7 km/h (1 Bft) 97,80 %
04.05.2023 06:00 6,6 C 5,8 C 2,8 C 87 % 1021,9 hPa 0,0 l/m 0,00 h 0,00 h 19 W/m 3,2 km/h (1 Bft) 97,17 %
04.05.2023 07:00 7,4 C 7,8 C 4,0 C 88 % 1021,8 hPa 0,0 l/m 0,00 h 0,00 h 77 W/m 2,3 km/h (1 Bft) 99,02 %
04.05.2023 08:00 9,5 C 11,6 C 6,4 C 85 % 1021,6 hPa 0,0 l/m 0,70 h 0,00 h 251 W/m 3,6 km/h (1 Bft) 95,18 %
04.05.2023 09:00 14,0 C 17,9 C 11,6 C 68 % 1021,2 hPa 0,0 l/m 1,00 h 0,00 h 411 W/m 11,2 km/h (2 Bft) 96,88 %
04.05.2023 10:00 16,3 C 18,8 C 12,7 C 61 % 1020,7 hPa 0,0 l/m 1,00 h 0,00 h 541 W/m 12,1 km/h (2 Bft) 96,58 %
04.05.2023 11:00 18,7 C 21,0 C 15,4 C 58 % 1020,2 hPa 0,0 l/m 1,00 h 0,00 h 749 W/m 16,7 km/h (3 Bft) 99,22 %
04.05.2023 12:00 20,9 C 26,1 C 20,9 C 54 % 1019,6 hPa 0,0 l/m 1,00 h 0,00 h 822 W/m 16,3 km/h (3 Bft) 97,51 %
04.05.2023 13:00 22,4 C 27,7 C 19,1 C 49 % 1018,6 hPa 0,0 l/m 1,00 h 0,00 h 829 W/m 16,7 km/h (3 Bft) 96,81 %
04.05.2023 14:00 23,8 C 29,5 C 19,0 C 43 % 1017,8 hPa 0,0 l/m 1,00 h 0,00 h 863 W/m 17,3 km/h (3 Bft) 97,50 %
04.05.2023 15:00 25,1 C 29,3 C 19,8 C 39 % 1017,0 hPa 0,0 l/m 1,00 h 0,00 h 781 W/m 17,7 km/h (3 Bft) 97,87 %
04.05.2023 16:00 24,9 C 27,2 C 20,1 C 39 % 1016,0 hPa 0,0 l/m 1,00 h 0,00 h 575 W/m 15,8 km/h (3 Bft) 97,08 %
04.05.2023 17:00 25,1 C 27,1 C 20,6 C 39 % 1015,3 hPa 0,0 l/m 1,00 h 0,00 h 451 W/m 15,0 km/h (3 Bft) 97,93 %
04.05.2023 18:00 25,0 C 27,2 C 20,2 C 39 % 1015,0 hPa 0,0 l/m 0,87 h 0,00 h 334 W/m 11,0 km/h (2 Bft) 96,82 %
04.05.2023 19:00 23,6 C 23,1 C 18,7 C 43 % 1014,7 hPa 0,0 l/m 0,73 h 0,00 h 117 W/m 8,6 km/h (2 Bft) 99,22 %
04.05.2023 20:00 22,6 C 21,5 C 17,5 C 45 % 1014,8 hPa 0,0 l/m 0,67 h 0,00 h 38 W/m 9,6 km/h (2 Bft) 95,16 %
04.05.2023 21:00 20,9 C 19,2 C 15,5 C 50 % 1015,1 hPa 0,0 l/m 0,00 h 0,00 h 0 W/m 5,1 km/h (1 Bft) 99,29 %
04.05.2023 22:00 19,1 C 17,5 C 13,7 C 56 % 1015,1 hPa 0,0 l/m 0,00 h 0,00 h 0 W/m 4,4 km/h (1 Bft) 97,64 %
04.05.2023 23:00 18,1 C 17,0 C 13,3 C 59 % 1014,8 hPa 0,0 l/m 0,00 h 0,00 h 0 W/m 6,6 km/h (2 Bft) 97,22 %
05.05.2023 00:00 17,8 C 16,8 C 13,3 C 60 % 1014,7 hPa 0,0 l/m 0,00 h 0,00 h 0 W/m 13,9 km/h (3 Bft) 95,26 %
05.05.2023 01:00 17,4 C 16,3 C 12,7 C 62 % 1014,9 hPa 0,0 l/m 0,00 h 0,00 h 0 W/m 7,4 km/h (2 Bft) 97,43 %
05.05.2023 02:00 16,7 C 15,3 C 11,4 C 66 % 1014,9 hPa 0,0 l/m 0,00 h 0,00 h 0 W/m 2,1 km/h (1 Bft) 96,71 %
05.05.2023 03:00 15,6 C 13,6 C 9,7 C 73 % 1014,9 hPa 0,0 l/m 0,00 h 0,00 h 0 W/m 0,6 km/h (0 Bft) 97,95 %
05.05.2023 04:00 15,4 C 14,5 C 10,7 C 82 % 1015,3 hPa 0,0 l/m 0,00 h 0,00 h 0 W/m 3,0 km/h (1 Bft) 98,44 %
05.05.2023 05:00 15,2 C 13,3 C 9,6 C 84 % 1015,4 hPa 0,0 l/m 0,00 h 0,00 h 0 W/m 0,7 km/h (0 Bft) 96,52 %
05.05.2023 06:00 14,1 C 12,3 C 8,6 C 86 % 1015,9 hPa 0,0 l/m 0,00 h 0,00 h 13 W/m 0,6 km/h (0 Bft) 97,42 %
05.05.2023 07:00 13,8 C 13,5 C 9,5 C 90 % 1016,3 hPa 0,0 l/m 0,00 h 0,00 h 57 W/m 1,9 km/h (1 Bft) 98,24 %
05.05.2023 08:00 15,4 C 16,6 C 11,8 C 87 % 1016,5 hPa 0,0 l/m 0,73 h 0,00 h 261 W/m 5,1 km/h (1 Bft) 96,18 %
05.05.2023 09:00 17,9 C 20,6 C 15,0 C 78 % 1016,9 hPa 0,0 l/m 1,00 h 0,00 h 346 W/m 8,1 km/h (2 Bft) 97,19 %
05.05.2023 10:00 19,3 C 21,7 C 15,9 C 74 % 1017,0 hPa 0,0 l/m 0,93 h 0,00 h 542 W/m 8,5 km/h (2 Bft) 99,43 %
05.05.2023 11:00 20,7 C 22,8 C 17,1 C 69 % 1017,0 hPa 0,0 l/m 0,77 h 0,00 h 461 W/m 9,7 km/h (2 Bft) 96,87 %
05.05.2023 12:00 20,4 C 20,8 C 16,4 C 72 % 1016,7 hPa 0,0 l/m 0,03 h 0,13 h 273 W/m 5,9 km/h (2 Bft) 97,90 %
05.05.2023 13:00 20,3 C 20,1 C 15,8 C 72 % 1016,4 hPa 0,2 l/m 0,00 h 0,20 h 222 W/m 9,0 km/h (2 Bft) 96,22 %
05.05.2023 14:00 20,1 C 21,3 C 16,2 C 72 % 1016,3 hPa 0,0 l/m 0,70 h 0,00 h 419 W/m 11,1 km/h (2 Bft) 99,52 %
05.05.2023 15:00 20,6 C 21,5 C 16,6 C 68 % 1016,1 hPa 0,0 l/m 0,40 h 0,00 h 365 W/m 11,1 km/h (2 Bft) 97,94 %
05.05.2023 16:00 18,3 C 17,3 C 13,7 C 73 % 1016,3 hPa 0,0 l/m 0,00 h 0,13 h 131 W/m 15,0 km/h (3 Bft) 95,79 %
05.05.2023 17:00 15,9 C 16,3 C 12,0 C 87 % 1016,7 hPa 0,0 l/m 0,20 h 0,03 h 188 W/m 13,9 km/h (3 Bft) 98,29 %
05.05.2023 18:00 15,8 C 15,5 C 11,6 C 86 % 1016,6 hPa 0,0 l/m 0,07 h 0,00 h 71 W/m 9,8 km/h (2 Bft) 97,91 %
05.05.2023 19:00 14,9 C 13,9 C 10,1 C 89 % 1016,8 hPa 1,0 l/m 0,00 h 0,60 h 15 W/m 3,5 km/h (1 Bft) 95,95 %
05.05.2023 20:00 14,4 C 13,3 C 9,3 C 93 % 1016,8 hPa 0,0 l/m 0,00 h 0,00 h 11 W/m 2,7 km/h (1 Bft) 99,41 %
05.05.2023 21:00 13,7 C 12,3 C 8,8 C 94 % 1017,1 hPa 0,2 l/m 0,00 h 0,00 h 0 W/m 1,8 km/h (1 Bft) 96,65 %
05.05.2023 22:00 13,0 C 11,3 C 8,0 C 94 % 1017,2 hPa 0,0 l/m 0,00 h 0,00 h 0 W/m 0,0 km/h (0 Bft) 96,64 %
05.05.2023 23:00 12,5 C 11,2 C 7,8 C 96 % 1017,2 hPa 0,0 l/m 0,00 h 0,00 h 0 W/m 0,9 km/h (0 Bft) 97,63 %
06.05.2023 00:00 12,2 C 11,1 C 7,8 C 96 % 1017,2 hPa 0,0 l/m 0,00 h 0,00 h 0 W/m 2,2 km/h (1 Bft) 94,52 %
06.05.2023 01:00 12,1 C 11,1 C 7,8 C 97 % 1017,1 hPa 0,0 l/m 0,00 h 0,00 h 0 W/m 2,9 km/h (1 Bft) 97,30 %
06.05.2023 02:00 11,8 C 10,5 C 7,2 C 97 % 1016,8 hPa 0,0 l/m 0,00 h 0,00 h 0 W/m 0,4 km/h (0 Bft) 96,54 %
06.05.2023 03:00 11,0 C 9,9 C 6,8 C 97 % 1016,7 hPa 0,0 l/m 0,00 h 0,00 h 0 W/m 0,9 km/h (0 Bft) 99,50 %
06.05.2023 04:00 10,9 C 9,9 C 6,8 C 97 % 1016,7 hPa 0,0 l/m 0,00 h 0,00 h 0 W/m 3,1 km/h (1 Bft) 94,60 %
06.05.2023 05:00 10,5 C 9,3 C 6,5 C 97 % 1016,7 hPa 0,0 l/m 0,00 h 0,00 h 0 W/m 2,7 km/h (1 Bft) 97,72 %
06.05.2023 06:00 9,9 C 8,9 C 6,1 C 97 % 1016,8 hPa 0,0 l/m 0,00 h 0,00 h 18 W/m 2,8 km/h (1 Bft) 98,23 %
06.05.2023 07:00 10,2 C 9,8 C 6,9 C 98 % 1017,3 hPa 0,0 l/m 0,00 h 0,00 h 37 W/m 3,3 km/h (1 Bft) 95,99 %
06.05.2023 08:00 11,6 C 13,6 C 8,5 C 99 % 1017,4 hPa 0,0 l/m 0,83 h 0,00 h 292 W/m 3,8 km/h (1 Bft) 98,02 %
06.05.2023 09:00 14,7 C 22,2 C 14,0 C 95 % 1017,6 hPa 0,0 l/m 1,00 h 0,00 h 498 W/m 6,0 km/h (2 Bft) 98,79 %
06.05.2023 10:00 17,3 C 20,7 C 13,9 C 80 % 1017,7 hPa 0,0 l/m 0,93 h 0,00 h 596 W/m 9,4 km/h (2 Bft) 95,99 %
06.05.2023 11:00 18,9 C 22,4 C 15,7 C 75 % 1017,5 hPa 0,0 l/m 1,00 h 0,00 h 756 W/m 8,5 km/h (2 Bft) 96,41 %
06.05.2023 12:00 20,3 C 25,2 C 20,2 C 69 % 1017,2 hPa 0,0 l/m 0,90 h 0,00 h 723 W/m 9,2 km/h (2 Bft) 98,09 %
06.05.2023 13:00 21,3 C 24,2 C 18,1 C 65 % 1016,8 hPa 0,0 l/m 0,93 h 0,00 h 550 W/m 9,1 km/h (2 Bft) 97,78 %
06.05.2023 14:00 22,3 C 26,5 C 18,0 C 61 % 1016,5 hPa 0,0 l/m 0,77 h 0,00 h 655 W/m 8,9 km/h (2 Bft) 98,99 %
06.05.2023 15:00 22,2 C 24,3 C 17,8 C 60 % 1016,4 hPa 0,0 l/m 0,53 h 0,00 h 407 W/m 6,7 km/h (2 Bft) 95,57 %
06.05.2023 16:00 20,7 C 19,0 C 15,2 C 66 % 1016,3 hPa 0,4 l/m 0,00 h 0,37 h 74 W/m 13,9 km/h (3 Bft) 98,94 %
06.05.2023 17:00 16,2 C 14,5 C 10,9 C 90 % 1016,7 hPa 2,0 l/m 0,00 h 0,93 h 67 W/m 12,0 km/h (2 Bft) 98,91 %
06.05.2023 18:00 16,2 C 15,8 C 11,1 C 93 % 1016,6 hPa 0,2 l/m 0,00 h 0,40 h 72 W/m 2,4 km/h (1 Bft) 95,75 %
06.05.2023 19:00 16,4 C 15,6 C 11,3 C 94 % 1016,4 hPa 0,0 l/m 0,00 h 0,00 h 41 W/m 1,5 km/h (1 Bft) 98,72 %
06.05.2023 20:00 16,3 C 15,4 C 11,1 C 94 % 1016,4 hPa 0,0 l/m 0,00 h 0,00 h 13 W/m 0,0 km/h (0 Bft) 98,26 %
06.05.2023 21:00 16,5 C 15,6 C 10,9 C 95 % 1016,4 hPa 0,0 l/m 0,00 h 0,00 h 0 W/m 0,4 km/h (0 Bft) 95,72 %
06.05.2023 22:00 15,9 C 15,0 C 10,4 C 94 % 1016,6 hPa 0,0 l/m 0,00 h 0,00 h 0 W/m 2,5 km/h (1 Bft) 97,57 %
06.05.2023 23:00 15,1 C 14,4 C 10,0 C 95 % 1016,6 hPa 0,0 l/m 0,00 h 0,00 h 0 W/m 1,4 km/h (1 Bft) 96,48 %
07.05.2023 00:00 14,8 C 13,9 C 10,0 C 95 % 1016,5 hPa 0,0 l/m 0,00 h 0,00 h 0 W/m 0,2 km/h (0 Bft) 97,78 %
07.05.2023 01:00 14,6 C 13,9 C 10,0 C 96 % 1016,5 hPa 0,0 l/m 0,00 h 0,00 h 0 W/m 0,0 km/h (0 Bft) 95,45 %
07.05.2023 02:00 14,4 C 13,4 C 10,0 C 96 % 1016,4 hPa 0,0 l/m 0,00 h 0,00 h 0 W/m 0,0 km/h (0 Bft) 98,51 %
07.05.2023 03:00 14,1 C 13,0 C 9,7 C 96 % 1016,1 hPa 0,0 l/m 0,00 h 0,00 h 0 W/m 0,7 km/h (0 Bft) 97,16 %
07.05.2023 04:00 13,7 C 12,8 C 9,4 C 96 % 1016,0 hPa 0,0 l/m 0,00 h 0,00 h 0 W/m 0,0 km/h (0 Bft) 95,80 %
07.05.2023 05:00 13,5 C 12,8 C 9,4 C 97 % 1015,9 hPa 0,0 l/m 0,00 h 0,00 h 0 W/m 1,0 km/h (0 Bft) 99,36 %
07.05.2023 06:00 13,3 C 12,7 C 9,4 C 97 % 1016,1 hPa 0,0 l/m 0,00 h 0,03 h 16 W/m 0,9 km/h (0 Bft) 96,19 %
07.05.2023 07:00 13,6 C 13,7 C 10,2 C 98 % 1016,3 hPa 0,0 l/m 0,00 h 0,00 h 70 W/m 0,7 km/h (0 Bft) 97,66 %
07.05.2023 08:00 14,7 C 16,1 C 11,8 C 97 % 1016,6 hPa 0,0 l/m 0,27 h 0,00 h 166 W/m 4,0 km/h (1 Bft) 97,30 %
07.05.2023 09:00 17,1 C 20,2 C 14,3 C 87 % 1016,7 hPa 0,0 l/m 0,97 h 0,00 h 362 W/m 5,7 km/h (1 Bft) 96,15 %
07.05.2023 10:00 19,3 C 21,7 C 15,5 C 79 % 1016,9 hPa 0,0 l/m 0,70 h 0,00 h 395 W/m 6,1 km/h (2 Bft) 97,00 %
07.05.2023 11:00 20,1 C 21,9 C 16,6 C 75 % 1017,0 hPa 0,0 l/m 0,77 h 0,00 h 440 W/m 7,2 km/h (2 Bft) 99,79 %
07.05.2023 12:00 21,6 C 23,5 C 18,0 C 69 % 1016,9 hPa 0,0 l/m 0,70 h 0,00 h 438 W/m 5,7 km/h (1 Bft) 96,06 %
07.05.2023 13:00 22,4 C 23,5 C 18,2 C 65 % 1016,8 hPa 0,0 l/m 0,63 h 0,00 h 402 W/m 6,2 km/h (2 Bft) 97,22 %
07.05.2023 14:00 22,2 C 22,0 C 17,3 C 65 % 1016,9 hPa 0,0 l/m 0,00 h 0,00 h 200 W/m 4,7 km/h (1 Bft) 97,23 %
07.05.2023 15:00 22,0 C 21,3 C 16,9 C 66 % 1017,2 hPa 0,0 l/m 0,00 h 0,03 h 153 W/m 5,1 km/h (1 Bft) 98,70 %
07.05.2023 16:00 20,5 C 19,5 C 15,0 C 77 % 1017,5 hPa 0,8 l/m 0,00 h 0,27 h 109 W/m 8,4 km/h (2 Bft) 96,51 %
07.05.2023 17:00 18,6 C 17,2 C 12,4 C 88 % 1017,8 hPa 1,6 l/m 0,00 h 0,77 h 96 W/m 4,0 km/h (1 Bft) 97,31 %
07.05.2023 18:00 18,2 C 18,3 C 12,7 C 92 % 1018,1 hPa 0,0 l/m 0,00 h 0,03 h 157 W/m 0,2 km/h (0 Bft) 98,24 %
07.05.2023 19:00 18,6 C 17,9 C 12,7 C 90 % 1018,4 hPa 0,0 l/m 0,00 h 0,00 h 80 W/m 0,0 km/h (0 Bft) 97,72 %
07.05.2023 20:00 18,2 C 16,8 C 12,3 C 91 % 1018,8 hPa 0,0 l/m 0,00 h 0,00 h 20 W/m 0,0 km/h (0 Bft) 96,03 %
07.05.2023 21:00 17,4 C 15,8 C 11,8 C 92 % 1019,3 hPa 0,0 l/m 0,00 h 0,00 h 0 W/m 0,0 km/h (0 Bft) 98,67 %
07.05.2023 22:00 16,5 C 15,2 C 11,1 C 94 % 1019,8 hPa 0,0 l/m 0,00 h 0,00 h 0 W/m 0,0 km/h (0 Bft) 97,36 %
07.05.2023 23:00 16,1 C 14,8 C 11,1 C 94 % 1020,0 hPa 0,0 l/m 0,00 h 0,00 h 0 W/m 0,0 km/h (0 Bft) 95,88 %
Min-Datum _ 03.05.23 03.05.23 03.05.23 04.05.23 01.05.23 - - - - 01.05.23 06.05.23
_ Min-Zeit 05:54 04:50 05:02 15:48 15:00 - - - - 00:24 00:02
Minimum _ 3,8 C 2,8 C 0,0 C 37 % 1014,1 hPa - - - - 0,0 km/h (0 Bft) 9,52 %
Max-Datum _ 04.05.23 04.05.23 06.05.23 06.05.23 03.05.23 06.05.23 01.05.23 06.05.23 02.05.23 02.05.23 01.05.23
_ Max-Zeit 15:26 15:18 12:46 08:04 08:34 17:00 12:08 18:12 13:12 12:56 00:12
Maximum _ 25,4 C 31,7 C 23,9 C 99 % 1029,5 hPa 2,0 l/m 0,07 h 0,07 h 1091 W/m 35,4 km/h
NW (5 Bft)
100,00 %
Durchschnitt _ 14,6 C 15,3 C 10,5 C 77 % 1019,6 hPa #7,6 l/m #49:16 h #5:08 h 322 W/m 6,7 km/h (2 Bft) 97,37 %
© 2023 W. Hausmann